Bookmark and Share
Track history (hours):
 

Haja K

Last reported at 2014-Apr-21 00:26 UTC. Time now 2014-Apr-21 03:15 UTC.
Position N 46°50' E 031°56'.

Length 131 m; draft 8.4 m.

Type: Cargo ship. MMSI: 357882000.

NotesDate/timePositionNaut miles runAvg speedWind from/ knotsBaromVisibWave heightAir tempDewpointWater temp
2014-Apr-21 00:26N 46°50' E 031°56'0 0.0
2014-Apr-20 23:32N 46°50' E 031°56'0 0.0
2014-Apr-20 22:26N 46°50' E 031°56'0 0.0
2014-Apr-20 21:32N 46°50' E 031°56'0 0.0
2014-Apr-20 20:32N 46°50' E 031°56'0 0.0
2014-Apr-20 19:32N 46°50' E 031°56'0 0.0
2014-Apr-20 18:32N 46°50' E 031°56'1 0.0
2014-Apr-19 21:27N 46°50' E 031°57'0 0.0
2014-Apr-19 20:20N 46°50' E 031°57'0 0.0
2014-Apr-19 19:32N 46°50' E 031°57'0 0.0
2014-Apr-19 18:32N 46°50' E 031°57'0 0.0
2014-Apr-19 17:32N 46°50' E 031°57'0 0.0
2014-Apr-19 16:32N 46°50' E 031°57'0 0.0
2014-Apr-19 15:32N 46°50' E 031°57'0 0.0
2014-Apr-19 14:32N 46°50' E 031°57'0 0.0
2014-Apr-19 13:32N 46°50' E 031°57'0 0.0
2014-Apr-19 12:32N 46°50' E 031°57'0 0.0
2014-Apr-19 11:32N 46°50' E 031°57'0 0.0
2014-Apr-19 10:32N 46°50' E 031°57'0 0.0
2014-Apr-19 09:32N 46°50' E 031°57'0 0.0
2014-Apr-19 08:32N 46°50' E 031°57'0 0.0
2014-Apr-19 07:32N 46°50' E 031°57'0 0.0
2014-Apr-19 06:32N 46°50' E 031°57'0 0.0
2014-Apr-19 05:32N 46°50' E 031°57'0 0.0
2014-Apr-19 04:32N 46°50' E 031°57'0 0.0
2014-Apr-19 03:32N 46°50' E 031°57'0 0.0
2014-Apr-19 02:32N 46°50' E 031°57'0 0.0
2014-Apr-19 01:32N 46°50' E 031°57'0 0.0
2014-Apr-19 00:32N 46°50' E 031°57'0 0.0
2014-Apr-18 23:32N 46°50' E 031°57'0 0.0
2014-Apr-18 22:32N 46°50' E 031°57'0 0.0
2014-Apr-18 21:32N 46°50' E 031°57'0 0.0
2014-Apr-18 20:32N 46°50' E 031°57'0 0.1
2014-Apr-18 19:32N 46°50' E 031°57'1 1.4
2014-Apr-18 18:33N 46°50' E 031°55'0 0.0
2014-Apr-18 17:33N 46°50' E 031°55'0 0.0
2014-Apr-18 15:30N 46°50' E 031°55'0 0.0
2014-Apr-18 14:33N 46°50' E 031°55'0 0.0
2014-Apr-18 13:30N 46°50' E 031°55'0 0.0
2014-Apr-18 12:33N 46°50' E 031°55'0 0.0
2014-Apr-18 11:33N 46°50' E 031°55'0 0.0
2014-Apr-18 10:33N 46°50' E 031°55'0 0.0
2014-Apr-18 09:29N 46°50' E 031°55'6 6.1
2014-Apr-18 08:31N 46°44' E 031°55'7 7.6
2014-Apr-18 07:33N 46°37' E 031°53'11 8.5
2014-Apr-18 06:15N 46°35' E 031°36'5 7.6
2014-Apr-18 05:33N 46°36' E 031°29'9 8.4
2014-Apr-18 04:32N 46°35' E 031°16'18 4.4
2014-Apr-18 00:32N 46°20' E 031°02'0 0.0
2014-Apr-17 23:12N 46°20' E 031°02'0 0.0
2014-Apr-17 06:29N 46°20' E 031°02'0 0.0
2014-Apr-17 05:29N 46°20' E 031°02'0 0.0
2014-Apr-17 04:29N 46°20' E 031°02'0 0.0
2014-Apr-17 03:32N 46°20' E 031°02'0 0.0
2014-Apr-17 02:32N 46°20' E 031°02'0 0.0
2014-Apr-17 00:17N 46°20' E 031°02'287 8.8
2014-Apr-15 15:33N 41°42' E 029°21'1010.5
2014-Apr-15 14:34N 41°32' E 029°16'10 5.1
2014-Apr-15 12:34N 41°22' E 029°14'  
2014-Apr-11 09:32N 41°17' E 029°01'0 0.0
2014-Apr-11 08:29N 41°17' E 029°01'0 0.0
2014-Apr-11 07:33N 41°17' E 029°01'  

Dump ship's entire track history

sailing weather and tide predictions

Haja K — 3FVK3 — position and weather